createdAt,value
2019-05-19T00:00:43.509Z,99.90
2019-05-19T00:03:14.242Z,99.90
2019-05-19T00:05:45.033Z,99.90
2019-05-19T00:08:15.719Z,99.90
2019-05-19T00:10:46.465Z,99.90
2019-05-19T00:13:17.131Z,99.90
2019-05-19T00:15:47.807Z,99.90
2019-05-19T00:18:18.552Z,99.90
2019-05-19T00:20:49.260Z,99.90
2019-05-19T00:23:19.999Z,99.90
2019-05-19T00:25:50.763Z,99.90
2019-05-19T00:28:21.433Z,99.90
2019-05-19T00:30:52.204Z,99.90
2019-05-19T00:33:22.851Z,99.90
2019-05-19T00:35:53.588Z,99.90
2019-05-19T00:38:24.324Z,99.90
2019-05-19T00:40:55.091Z,99.90
2019-05-19T00:43:25.788Z,99.90
2019-05-19T00:45:56.542Z,99.90
2019-05-19T00:48:27.259Z,99.90
2019-05-19T00:50:57.965Z,99.90
2019-05-19T00:53:28.745Z,99.90
2019-05-19T00:56:01.903Z,99.90
2019-05-19T00:58:34.606Z,99.90
2019-05-19T01:01:05.375Z,99.90
2019-05-19T01:03:36.110Z,99.90
2019-05-19T01:06:06.894Z,99.90
2019-05-19T01:08:37.624Z,99.90
2019-05-19T01:11:08.419Z,99.90
2019-05-19T01:13:39.144Z,99.90
2019-05-19T01:16:09.899Z,99.90
2019-05-19T01:18:40.676Z,99.90
2019-05-19T01:21:11.643Z,99.90
2019-05-19T01:23:42.350Z,99.90
2019-05-19T01:26:13.163Z,99.90
2019-05-19T01:28:43.882Z,99.90
2019-05-19T01:31:14.628Z,99.90
2019-05-19T01:33:45.343Z,99.90
2019-05-19T01:36:16.109Z,99.90
2019-05-19T01:38:46.830Z,99.90
2019-05-19T01:41:17.524Z,99.90
2019-05-19T01:43:48.191Z,99.90
2019-05-19T01:46:18.856Z,99.90
2019-05-19T01:48:49.604Z,99.90
2019-05-19T01:51:20.377Z,99.90
2019-05-19T01:53:51.088Z,99.90
2019-05-19T01:56:21.822Z,99.90
2019-05-19T01:58:52.497Z,99.90
2019-05-19T02:01:23.215Z,99.90
2019-05-19T02:03:53.960Z,99.90
2019-05-19T02:06:24.647Z,99.90
2019-05-19T02:08:55.363Z,99.90
2019-05-19T02:11:26.155Z,99.90
2019-05-19T02:13:56.824Z,99.90
2019-05-19T02:16:27.573Z,99.90
2019-05-19T02:18:58.328Z,99.90
2019-05-19T02:21:29.087Z,99.90
2019-05-19T02:23:59.813Z,99.90
2019-05-19T02:26:30.560Z,99.90
2019-05-19T02:29:01.284Z,99.90
2019-05-19T02:31:31.999Z,99.90
2019-05-19T02:34:02.769Z,99.90
2019-05-19T02:36:33.453Z,99.90
2019-05-19T02:39:06.090Z,99.90
2019-05-19T02:41:39.541Z,99.90
2019-05-19T02:44:12.004Z,99.90
2019-05-19T02:46:42.850Z,99.90
2019-05-19T02:49:15.357Z,99.90
2019-05-19T02:51:49.795Z,99.90
2019-05-19T02:54:21.352Z,99.90
2019-05-19T02:56:52.581Z,99.90
2019-05-19T02:59:24.892Z,99.90
2019-05-19T03:02:07.765Z,99.90
2019-05-19T03:04:38.461Z,99.90
2019-05-19T03:07:09.194Z,99.90
2019-05-19T03:09:39.949Z,99.90
2019-05-19T03:12:10.667Z,99.90
2019-05-19T03:14:41.424Z,99.90
2019-05-19T03:17:12.174Z,99.90
2019-05-19T03:19:43.006Z,99.90
2019-05-19T03:22:13.802Z,99.90
2019-05-19T03:24:44.560Z,99.90
2019-05-19T03:27:15.306Z,99.90
2019-05-19T03:29:50.723Z,99.90
2019-05-19T03:32:40.394Z,99.90
2019-05-19T03:35:11.161Z,99.90
2019-05-19T03:37:41.868Z,99.90
2019-05-19T03:40:21.771Z,99.90
2019-05-19T03:42:52.554Z,99.90
2019-05-19T03:45:23.248Z,99.90
2019-05-19T03:47:53.893Z,99.90
2019-05-19T03:50:24.659Z,99.90
2019-05-19T03:52:55.406Z,99.90
2019-05-19T03:55:26.183Z,99.90
2019-05-19T03:57:56.930Z,99.90
2019-05-19T04:00:27.664Z,99.90
2019-05-19T04:02:58.372Z,99.90
2019-05-19T04:05:29.118Z,99.90
2019-05-19T04:07:59.823Z,99.90
2019-05-19T04:10:30.532Z,99.90
2019-05-19T04:13:01.257Z,99.90
2019-05-19T04:15:32.013Z,99.90
2019-05-19T04:18:02.759Z,99.90
2019-05-19T04:20:33.517Z,99.90
2019-05-19T04:23:04.241Z,99.90
2019-05-19T04:25:35.000Z,99.90
2019-05-19T04:28:05.726Z,99.90
2019-05-19T04:30:36.442Z,99.90
2019-05-19T04:33:07.209Z,99.90
2019-05-19T04:35:37.956Z,99.90
2019-05-19T04:38:08.690Z,99.90
2019-05-19T04:40:39.410Z,99.90
2019-05-19T04:43:10.158Z,99.90
2019-05-19T04:45:40.918Z,99.90
2019-05-19T04:48:11.546Z,99.90
2019-05-19T04:50:42.313Z,99.90
2019-05-19T04:53:13.020Z,99.90
2019-05-19T04:55:43.795Z,99.90
2019-05-19T04:58:14.511Z,99.90
2019-05-19T05:00:45.257Z,99.90
2019-05-19T05:03:15.944Z,99.90
2019-05-19T05:05:46.619Z,99.90
2019-05-19T05:08:28.847Z,99.90
2019-05-19T05:10:49.713Z,99.90
2019-05-19T05:13:20.488Z,99.90
2019-05-19T05:15:51.196Z,99.90
2019-05-19T05:18:21.962Z,99.90
2019-05-19T05:20:52.707Z,99.90
2019-05-19T05:23:23.433Z,99.90
2019-05-19T05:25:54.201Z,99.90
2019-05-19T05:28:24.917Z,99.90
2019-05-19T05:30:55.953Z,99.90
2019-05-19T05:33:26.720Z,99.90
2019-05-19T05:35:57.526Z,99.90
2019-05-19T05:38:28.311Z,99.90
2019-05-19T05:40:59.097Z,99.90
2019-05-19T05:43:29.874Z,99.90
2019-05-19T05:46:00.690Z,99.90
2019-05-19T05:48:31.486Z,99.90
2019-05-19T05:51:02.314Z,99.90
2019-05-19T05:53:33.071Z,99.90
2019-05-19T05:56:03.860Z,99.90
2019-05-19T05:58:34.632Z,99.90
2019-05-19T06:01:05.419Z,99.90
2019-05-19T06:03:36.224Z,99.90
2019-05-19T06:06:07.002Z,99.90
2019-05-19T06:08:37.868Z,99.90
2019-05-19T06:11:08.606Z,99.90
2019-05-19T06:13:39.421Z,99.90
2019-05-19T06:16:10.240Z,99.90
2019-05-19T06:18:41.112Z,99.90
2019-05-19T06:21:11.908Z,99.90
2019-05-19T06:23:42.725Z,99.90
2019-05-19T06:26:13.522Z,99.90
2019-05-19T06:28:44.327Z,99.90
2019-05-19T06:31:15.051Z,99.90
2019-05-19T06:33:45.871Z,99.90
2019-05-19T06:36:16.627Z,99.90
2019-05-19T06:38:47.459Z,99.90
2019-05-19T06:41:18.150Z,99.90
2019-05-19T06:43:48.927Z,99.90
2019-05-19T06:46:19.681Z,99.90
2019-05-19T06:48:50.539Z,99.90
2019-05-19T06:51:21.264Z,99.90
2019-05-19T06:53:52.381Z,99.90
2019-05-19T06:56:23.168Z,99.90
2019-05-19T06:58:53.994Z,99.90
2019-05-19T07:01:24.760Z,99.90
2019-05-19T07:03:55.577Z,99.90
2019-05-19T07:06:26.365Z,99.90
2019-05-19T07:08:57.151Z,99.90
2019-05-19T07:11:27.958Z,99.90
2019-05-19T07:13:58.768Z,99.90
2019-05-19T07:16:29.468Z,99.90
2019-05-19T07:19:00.327Z,99.90
2019-05-19T07:21:31.022Z,99.90
2019-05-19T07:24:01.846Z,99.90
2019-05-19T07:26:32.642Z,99.90
2019-05-19T07:29:03.430Z,99.90
2019-05-19T07:31:34.205Z,99.90
2019-05-19T07:34:04.986Z,99.90
2019-05-19T07:36:35.738Z,99.90
2019-05-19T07:39:07.896Z,99.90
2019-05-19T07:41:38.611Z,99.90
2019-05-19T07:44:09.418Z,99.90
2019-05-19T07:46:40.252Z,99.90
2019-05-19T07:49:11.021Z,99.90
2019-05-19T07:51:41.812Z,99.90
2019-05-19T07:54:12.582Z,99.90
2019-05-19T07:56:43.360Z,99.90
2019-05-19T07:59:14.169Z,99.90
2019-05-19T08:01:44.922Z,99.90
2019-05-19T08:04:15.689Z,99.90
2019-05-19T08:06:46.477Z,99.90
2019-05-19T08:09:17.410Z,99.90
2019-05-19T08:11:48.276Z,99.90
2019-05-19T08:14:19.092Z,99.90
2019-05-19T08:16:49.980Z,99.90
2019-05-19T08:19:20.905Z,99.90
2019-05-19T08:21:51.743Z,99.90
2019-05-19T08:24:22.614Z,99.90
2019-05-19T08:26:53.515Z,99.90
2019-05-19T08:29:24.382Z,99.90
2019-05-19T08:31:55.349Z,99.90
2019-05-19T08:34:26.143Z,99.90
2019-05-19T08:36:57.013Z,99.90
2019-05-19T08:39:27.921Z,99.90
2019-05-19T08:41:58.863Z,99.90
2019-05-19T08:44:29.738Z,99.90
2019-05-19T08:47:00.605Z,99.90
2019-05-19T08:49:31.472Z,99.90
2019-05-19T08:52:02.227Z,99.90
2019-05-19T08:54:34.304Z,99.90
2019-05-19T08:57:05.151Z,99.90
2019-05-19T08:59:35.947Z,99.90
2019-05-19T09:02:06.783Z,99.90
2019-05-19T09:04:37.590Z,99.90
2019-05-19T09:07:08.426Z,99.90
2019-05-19T09:09:39.223Z,99.90
2019-05-19T09:12:10.050Z,99.90
2019-05-19T09:14:41.967Z,99.90
2019-05-19T09:17:12.823Z,99.50
2019-05-19T09:19:43.669Z,98.20
2019-05-19T09:22:14.485Z,99.50
2019-05-19T09:24:45.311Z,99.90
2019-05-19T09:27:16.232Z,99.90
2019-05-19T09:29:47.044Z,98.30
2019-05-19T09:32:18.330Z,99.80
2019-05-19T09:34:49.108Z,98.70
2019-05-19T09:37:20.313Z,93.70
2019-05-19T09:39:51.440Z,90.30
2019-05-19T09:42:22.146Z,96.30
2019-05-19T09:44:52.883Z,95.90
2019-05-19T09:47:23.789Z,90.60
2019-05-19T09:49:54.626Z,92.40
2019-05-19T09:52:25.542Z,94.60
2019-05-19T09:54:56.347Z,91.60
2019-05-19T09:57:29.563Z,91.20
2019-05-19T10:00:00.238Z,87.60
2019-05-19T10:02:30.940Z,86.00
2019-05-19T10:05:01.654Z,87.10
2019-05-19T10:07:32.721Z,90.10
2019-05-19T10:10:08.300Z,95.00
2019-05-19T10:12:39.025Z,89.40
2019-05-19T10:15:11.220Z,85.60
2019-05-19T10:17:41.957Z,86.40
2019-05-19T10:20:14.159Z,90.80
2019-05-19T10:22:44.841Z,92.70
2019-05-19T10:25:22.109Z,84.70
2019-05-19T10:27:48.065Z,80.90
2019-05-19T10:30:19.160Z,85.30
2019-05-19T10:32:50.311Z,85.60
2019-05-19T10:35:21.064Z,86.30
2019-05-19T10:37:51.841Z,90.20
2019-05-19T10:40:22.656Z,89.70
2019-05-19T10:42:53.383Z,84.50
2019-05-19T10:45:24.169Z,85.70
2019-05-19T10:47:54.965Z,86.60
2019-05-19T10:50:25.752Z,81.70
2019-05-19T10:52:56.509Z,86.00
2019-05-19T10:55:36.130Z,85.80
2019-05-19T10:57:59.656Z,80.40
2019-05-19T11:00:30.538Z,78.80
2019-05-19T11:03:01.345Z,79.20
2019-05-19T11:05:32.121Z,77.40
2019-05-19T11:08:02.777Z,76.70
2019-05-19T11:10:33.595Z,80.30
2019-05-19T11:13:04.370Z,75.90
2019-05-19T11:15:35.148Z,77.20
2019-05-19T11:18:06.585Z,78.30
2019-05-19T11:20:37.501Z,76.00
2019-05-19T11:23:08.245Z,72.10
2019-05-19T11:25:50.685Z,73.80
2019-05-19T11:28:11.410Z,74.90
2019-05-19T11:30:42.145Z,75.20
2019-05-19T11:33:12.924Z,71.00
2019-05-19T11:35:43.718Z,65.40
2019-05-19T11:38:14.507Z,70.40
2019-05-19T11:40:45.309Z,69.20
2019-05-19T11:43:16.077Z,69.20
2019-05-19T11:45:46.832Z,68.20
2019-05-19T11:48:17.585Z,69.00
2019-05-19T11:50:48.336Z,69.30
2019-05-19T11:53:19.076Z,67.50
2019-05-19T11:55:49.819Z,67.20
2019-05-19T11:58:20.495Z,70.40
2019-05-19T12:00:51.241Z,71.10
2019-05-19T12:03:21.907Z,69.00
2019-05-19T12:05:52.614Z,72.70
2019-05-19T12:08:23.470Z,72.10
2019-05-19T12:10:54.239Z,63.30
2019-05-19T12:13:24.976Z,63.00
2019-05-19T12:15:55.931Z,61.70
2019-05-19T12:18:26.698Z,58.00
2019-05-19T12:20:57.483Z,57.80
2019-05-19T12:23:28.199Z,57.10
2019-05-19T12:25:59.034Z,56.30
2019-05-19T12:28:29.784Z,55.30
2019-05-19T12:31:00.566Z,55.90
2019-05-19T12:33:31.274Z,56.50
2019-05-19T12:36:02.011Z,55.40
2019-05-19T12:38:32.674Z,53.30
2019-05-19T12:41:03.410Z,54.30
2019-05-19T12:43:34.142Z,54.80
2019-05-19T12:46:13.638Z,53.90
2019-05-19T12:48:37.343Z,53.40
2019-05-19T12:51:08.119Z,51.60
2019-05-19T12:53:38.977Z,52.40
2019-05-19T12:56:09.663Z,52.60
2019-05-19T12:58:40.390Z,52.70
2019-05-19T13:01:11.147Z,55.30
2019-05-19T13:03:41.962Z,54.00
2019-05-19T13:06:12.707Z,52.90
2019-05-19T13:08:43.515Z,52.40
2019-05-19T13:11:14.294Z,51.80
2019-05-19T13:13:45.100Z,51.90
2019-05-19T13:16:15.895Z,52.10
2019-05-19T13:18:46.678Z,51.30
2019-05-19T13:21:17.477Z,50.00
2019-05-19T13:23:48.223Z,48.50
2019-05-19T13:26:18.991Z,46.80
2019-05-19T13:28:50.631Z,48.70
2019-05-19T13:31:21.372Z,48.80
2019-05-19T13:33:52.109Z,48.30
2019-05-19T13:36:22.905Z,48.20
2019-05-19T13:38:53.642Z,45.10
2019-05-19T13:41:24.428Z,47.80
2019-05-19T13:43:55.174Z,47.40
2019-05-19T13:46:25.941Z,47.30
2019-05-19T13:48:56.738Z,45.70
2019-05-19T13:51:27.600Z,45.60
2019-05-19T13:53:58.351Z,46.20
2019-05-19T13:56:48.191Z,45.70
2019-05-19T13:59:18.949Z,41.70
2019-05-19T14:01:49.753Z,40.70
2019-05-19T14:04:20.463Z,41.20
2019-05-19T14:06:51.236Z,42.30
2019-05-19T14:09:22.047Z,41.20
2019-05-19T14:11:52.889Z,39.70
2019-05-19T14:14:23.655Z,40.00
2019-05-19T14:16:54.472Z,39.60
2019-05-19T14:19:25.322Z,38.80
2019-05-19T14:21:56.444Z,40.30
2019-05-19T14:24:27.141Z,43.00
2019-05-19T14:26:57.972Z,44.30
2019-05-19T14:29:28.704Z,47.40
2019-05-19T14:31:59.480Z,47.90
2019-05-19T14:34:30.210Z,46.00
2019-05-19T14:37:00.973Z,46.60
2019-05-19T14:39:31.784Z,49.40
2019-05-19T14:42:06.136Z,50.10
2019-05-19T14:44:36.903Z,51.60
2019-05-19T14:47:07.719Z,52.90
2019-05-19T14:49:38.425Z,51.40
2019-05-19T14:52:09.243Z,51.50
2019-05-19T14:54:40.118Z,53.10
2019-05-19T14:57:10.864Z,53.50
2019-05-19T14:59:41.632Z,54.80
2019-05-19T15:02:12.367Z,53.40
2019-05-19T15:04:43.133Z,54.00
2019-05-19T15:07:13.880Z,53.10
2019-05-19T15:09:44.679Z,53.00
2019-05-19T15:12:15.485Z,54.00
2019-05-19T15:14:46.309Z,54.50
2019-05-19T15:17:17.015Z,55.00
2019-05-19T15:19:47.880Z,55.30
2019-05-19T15:22:18.664Z,55.00
2019-05-19T15:24:49.893Z,55.10
2019-05-19T15:27:20.600Z,56.40
2019-05-19T15:29:51.419Z,56.70
2019-05-19T15:32:22.133Z,55.30
2019-05-19T15:34:52.908Z,57.50
2019-05-19T15:37:23.626Z,59.00
2019-05-19T15:39:54.434Z,59.40
2019-05-19T15:42:29.340Z,61.30
2019-05-19T15:45:00.127Z,62.70
2019-05-19T15:47:30.872Z,65.70
2019-05-19T15:50:01.667Z,69.70
2019-05-19T15:52:32.425Z,72.70
2019-05-19T15:55:03.265Z,77.20
2019-05-19T15:57:34.019Z,81.50
2019-05-19T16:00:05.611Z,89.80
2019-05-19T16:02:36.370Z,92.90
2019-05-19T16:05:07.369Z,96.40
2019-05-19T16:07:38.144Z,98.00
2019-05-19T16:10:09.762Z,99.20
2019-05-19T16:12:40.498Z,99.60
2019-05-19T16:15:11.862Z,98.30
2019-05-19T16:17:42.618Z,97.60
2019-05-19T16:20:13.607Z,98.80
2019-05-19T16:22:44.397Z,99.90
2019-05-19T16:25:15.404Z,99.60
2019-05-19T16:27:46.114Z,99.50
2019-05-19T16:30:17.312Z,98.20
2019-05-19T16:32:48.079Z,97.80
2019-05-19T16:35:18.925Z,95.70
2019-05-19T16:37:49.660Z,97.20
2019-05-19T16:40:20.434Z,95.40
2019-05-19T16:42:51.307Z,96.50
2019-05-19T16:45:22.479Z,99.70
2019-05-19T16:47:53.216Z,98.00
2019-05-19T16:50:24.022Z,97.30
2019-05-19T16:52:54.790Z,97.10
2019-05-19T16:55:30.318Z,97.90
2019-05-19T16:58:01.070Z,92.30
2019-05-19T17:00:31.848Z,90.80
2019-05-19T17:03:02.655Z,90.30
2019-05-19T17:05:33.420Z,91.00
2019-05-19T17:08:04.168Z,89.50
2019-05-19T17:10:34.953Z,87.20
2019-05-19T17:13:05.690Z,91.20
2019-05-19T17:15:36.476Z,91.90
2019-05-19T17:18:08.308Z,92.30
2019-05-19T17:20:39.158Z,91.70
2019-05-19T17:23:09.932Z,92.90
2019-05-19T17:25:40.694Z,93.70
2019-05-19T17:28:16.713Z,94.00
2019-05-19T17:30:47.477Z,93.90
2019-05-19T17:33:18.153Z,93.90
2019-05-19T17:35:48.918Z,92.80
2019-05-19T17:38:19.634Z,93.70
2019-05-19T17:40:50.411Z,91.90
2019-05-19T17:43:21.158Z,92.50
2019-05-19T17:45:51.974Z,91.90
2019-05-19T17:48:26.356Z,92.00
2019-05-19T17:50:55.138Z,91.70
2019-05-19T17:53:25.963Z,91.10
2019-05-19T17:55:58.242Z,90.40
2019-05-19T17:58:30.397Z,91.20
2019-05-19T18:01:01.224Z,92.00
2019-05-19T18:03:32.181Z,91.50
2019-05-19T18:06:02.979Z,92.20
2019-05-19T18:08:33.727Z,90.50
2019-05-19T18:11:04.483Z,91.30
2019-05-19T18:13:35.268Z,91.40
2019-05-19T18:16:06.056Z,92.10
2019-05-19T18:18:36.880Z,91.30
2019-05-19T18:21:07.646Z,91.10
2019-05-19T18:23:38.420Z,92.20
2019-05-19T18:26:09.178Z,92.20
2019-05-19T18:28:39.954Z,91.60
2019-05-19T18:31:10.790Z,92.20
2019-05-19T18:33:41.567Z,92.60
2019-05-19T18:36:12.303Z,93.00
2019-05-19T18:38:43.088Z,94.40
2019-05-19T18:41:13.846Z,95.50
2019-05-19T18:43:44.613Z,96.20
2019-05-19T18:46:15.348Z,96.50
2019-05-19T18:48:46.186Z,97.70
2019-05-19T18:51:17.012Z,98.20
2019-05-19T18:53:47.850Z,99.40
2019-05-19T18:56:18.628Z,99.10
2019-05-19T18:58:49.440Z,99.30
2019-05-19T19:01:20.238Z,99.90
2019-05-19T19:03:51.052Z,99.90
2019-05-19T19:06:21.808Z,99.90
2019-05-19T19:08:52.609Z,99.90
2019-05-19T19:11:23.385Z,99.90
2019-05-19T19:13:54.284Z,99.90
2019-05-19T19:16:25.095Z,99.90
2019-05-19T19:18:55.971Z,99.90
2019-05-19T19:21:26.678Z,99.90
2019-05-19T19:23:57.434Z,99.90
2019-05-19T19:26:28.230Z,99.90
2019-05-19T19:28:59.017Z,99.90
2019-05-19T19:31:29.804Z,99.90
2019-05-19T19:34:00.575Z,99.90
2019-05-19T19:36:31.358Z,99.90
2019-05-19T19:39:02.203Z,99.90
2019-05-19T19:41:32.958Z,99.90
2019-05-19T19:44:03.836Z,99.90
2019-05-19T19:46:35.541Z,99.90
2019-05-19T19:49:06.339Z,99.90
2019-05-19T19:51:37.095Z,99.90
2019-05-19T19:54:07.840Z,99.90
2019-05-19T19:56:38.606Z,99.90
2019-05-19T19:59:09.384Z,99.90
2019-05-19T20:01:40.170Z,99.90
2019-05-19T20:04:10.946Z,99.90
2019-05-19T20:06:41.711Z,99.90
2019-05-19T20:09:12.539Z,99.90
2019-05-19T20:11:43.326Z,99.90
2019-05-19T20:14:14.131Z,99.90
2019-05-19T20:16:44.877Z,99.90
2019-05-19T20:19:15.694Z,99.90
2019-05-19T20:21:46.450Z,99.90
2019-05-19T20:24:17.217Z,99.90
2019-05-19T20:26:47.914Z,99.90
2019-05-19T20:29:18.719Z,99.90
2019-05-19T20:31:49.456Z,99.90
2019-05-19T20:34:20.233Z,99.90
2019-05-19T20:36:51.021Z,99.90
2019-05-19T20:39:21.775Z,99.90
2019-05-19T20:41:52.541Z,99.90
2019-05-19T20:44:23.319Z,99.90
2019-05-19T20:46:54.055Z,99.90
2019-05-19T20:49:24.871Z,99.90
2019-05-19T20:51:55.637Z,99.90
2019-05-19T20:54:26.383Z,99.90
2019-05-19T20:56:57.120Z,99.90
2019-05-19T20:59:27.916Z,99.90
2019-05-19T21:01:58.676Z,99.90
2019-05-19T21:04:29.423Z,99.90
2019-05-19T21:07:00.155Z,99.90
2019-05-19T21:09:31.890Z,99.90
2019-05-19T21:12:02.632Z,99.90
2019-05-19T21:14:33.389Z,99.90
2019-05-19T21:17:04.143Z,99.90
2019-05-19T21:19:34.928Z,99.90
2019-05-19T21:22:05.675Z,99.90
2019-05-19T21:24:36.451Z,99.90
2019-05-19T21:27:07.187Z,99.90
2019-05-19T21:29:38.194Z,99.90
2019-05-19T21:32:08.940Z,99.90
2019-05-19T21:34:39.627Z,99.90
2019-05-19T21:37:10.404Z,99.90
2019-05-19T21:39:41.120Z,99.90
2019-05-19T21:42:11.877Z,99.90
2019-05-19T21:44:42.672Z,99.90
2019-05-19T21:47:13.494Z,99.90
2019-05-19T21:49:44.235Z,99.90
2019-05-19T21:52:15.051Z,99.90
2019-05-19T21:54:45.798Z,99.90
2019-05-19T21:57:16.594Z,99.90
2019-05-19T21:59:47.360Z,99.90
2019-05-19T22:02:18.156Z,99.90
2019-05-19T22:04:48.913Z,99.90
2019-05-19T22:07:41.836Z,99.90
2019-05-19T22:10:12.891Z,99.90
2019-05-19T22:12:43.668Z,99.90
2019-05-19T22:15:14.554Z,99.90
2019-05-19T22:17:45.319Z,99.90
2019-05-19T22:20:16.164Z,99.90
2019-05-19T22:22:46.945Z,99.90
2019-05-19T22:25:17.658Z,99.90
2019-05-19T22:27:48.416Z,99.90
2019-05-19T22:30:19.382Z,99.90
2019-05-19T22:32:50.138Z,99.90
2019-05-19T22:35:20.944Z,99.90
2019-05-19T22:37:51.701Z,99.90
2019-05-19T22:40:22.518Z,99.90
2019-05-19T22:42:53.384Z,99.90
2019-05-19T22:45:24.079Z,99.90
2019-05-19T22:47:54.893Z,99.90
2019-05-19T22:50:25.642Z,99.90
2019-05-19T22:52:56.382Z,99.90
2019-05-19T22:55:27.167Z,99.90
2019-05-19T22:57:58.882Z,99.90
2019-05-19T23:00:29.628Z,99.90
2019-05-19T23:03:00.419Z,99.90
2019-05-19T23:05:31.181Z,99.90
2019-05-19T23:08:01.969Z,99.90
2019-05-19T23:10:32.675Z,99.90
2019-05-19T23:13:03.481Z,99.90
2019-05-19T23:15:34.234Z,99.90
2019-05-19T23:18:04.987Z,99.90
2019-05-19T23:20:36.651Z,99.90
2019-05-19T23:23:07.427Z,99.90
2019-05-19T23:25:38.113Z,99.90
2019-05-19T23:28:08.818Z,99.90
2019-05-19T23:30:39.538Z,99.90
2019-05-19T23:33:10.263Z,99.90
2019-05-19T23:35:40.993Z,99.90
2019-05-19T23:38:11.751Z,99.90
2019-05-19T23:40:42.452Z,99.90
2019-05-19T23:43:13.147Z,99.90
2019-05-19T23:45:43.824Z,99.90
2019-05-19T23:48:14.502Z,99.90
2019-05-19T23:50:45.297Z,99.90
2019-05-19T23:53:15.965Z,99.90
2019-05-19T23:55:46.601Z,99.90
2019-05-19T23:58:17.844Z,99.90
